createdAt,value
2023-04-08T00:00:59.982Z,14.50
2023-04-08T00:03:47.652Z,14.70
2023-04-08T00:06:35.526Z,14.60
2023-04-08T00:09:23.462Z,14.60
2023-04-08T00:12:10.947Z,14.70
2023-04-08T00:14:58.513Z,14.70
2023-04-08T00:17:46.023Z,14.70
2023-04-08T00:20:33.583Z,14.70
2023-04-08T00:23:21.545Z,14.70
2023-04-08T00:26:09.000Z,14.60
2023-04-08T00:28:56.422Z,14.70
2023-04-08T00:31:44.018Z,14.70
2023-04-08T00:34:31.521Z,14.70
2023-04-08T00:37:19.034Z,14.70
2023-04-08T00:40:07.337Z,14.60
2023-04-08T00:42:58.096Z,14.70
2023-04-08T00:45:46.102Z,14.70
2023-04-08T00:48:34.332Z,14.70
2023-04-08T00:51:21.944Z,14.90
2023-04-08T00:54:09.558Z,14.80
2023-04-08T00:56:57.794Z,14.80
2023-04-08T00:59:45.383Z,14.80
2023-04-08T01:03:11.485Z,14.90
2023-04-08T01:06:44.208Z,14.90
2023-04-08T01:09:38.148Z,14.90
2023-04-08T01:12:32.925Z,14.90
2023-04-08T01:15:22.147Z,14.90
2023-04-08T01:18:14.030Z,14.90
2023-04-08T01:21:05.360Z,14.90
2023-04-08T01:24:09.789Z,14.90
2023-04-08T01:27:01.785Z,14.90
2023-04-08T01:29:50.325Z,14.90
2023-04-08T01:32:41.318Z,14.90
2023-04-08T01:35:31.425Z,14.90
2023-04-08T01:38:23.327Z,15.10
2023-04-08T01:41:15.757Z,14.90
2023-04-08T01:44:05.359Z,15.10
2023-04-08T01:46:55.338Z,14.70
2023-04-08T01:49:44.422Z,14.60
2023-04-08T01:52:35.789Z,14.50
2023-04-08T01:55:24.706Z,14.60
2023-04-08T01:58:21.484Z,14.70
2023-04-08T02:01:13.832Z,14.90
2023-04-08T02:04:03.775Z,15.00
2023-04-08T02:06:51.554Z,15.10
2023-04-08T02:09:39.053Z,14.90
2023-04-08T02:12:28.394Z,14.90
2023-04-08T02:15:16.826Z,14.90
2023-04-08T02:18:14.113Z,14.90
2023-04-08T02:21:15.766Z,14.80
2023-04-08T02:24:08.217Z,14.80
2023-04-08T02:26:57.508Z,14.80
2023-04-08T02:29:48.428Z,14.80
2023-04-08T02:32:37.530Z,14.80
2023-04-08T02:35:26.027Z,14.80
2023-04-08T02:38:13.481Z,14.70
2023-04-08T02:41:01.122Z,14.70
2023-04-08T02:43:48.604Z,15.00
2023-04-08T02:46:36.739Z,14.80
2023-04-08T02:49:24.452Z,14.90
2023-04-08T02:52:11.991Z,15.20
2023-04-08T02:54:59.506Z,15.00
2023-04-08T02:57:48.680Z,14.90
2023-04-08T03:00:37.337Z,14.70
2023-04-08T03:03:29.374Z,14.60
2023-04-08T03:06:17.229Z,14.70
2023-04-08T03:09:06.066Z,14.80
2023-04-08T03:11:54.989Z,14.90
2023-04-08T03:14:42.672Z,14.80
2023-04-08T03:17:34.030Z,14.80
2023-04-08T03:20:21.601Z,14.90
2023-04-08T03:23:09.127Z,14.90
2023-04-08T03:25:56.791Z,14.80
2023-04-08T03:28:44.675Z,14.70
2023-04-08T03:31:33.294Z,14.60
2023-04-08T03:34:20.905Z,13.90
2023-04-08T03:37:08.656Z,14.10
2023-04-08T03:39:56.514Z,13.80
2023-04-08T03:42:44.097Z,13.70
2023-04-08T03:45:31.614Z,13.90
2023-04-08T03:48:19.316Z,14.00
2023-04-08T03:51:06.916Z,14.10
2023-04-08T03:53:54.643Z,13.70
2023-04-08T03:56:42.330Z,13.60
2023-04-08T03:59:29.869Z,13.70
2023-04-08T04:02:17.373Z,13.90
2023-04-08T04:05:05.551Z,14.00
2023-04-08T04:07:53.210Z,13.70
2023-04-08T04:10:40.797Z,13.70
2023-04-08T04:13:28.206Z,13.60
2023-04-08T04:16:15.897Z,14.00
2023-04-08T04:19:03.528Z,14.10
2023-04-08T04:21:51.354Z,13.90
2023-04-08T04:24:38.777Z,14.00
2023-04-08T04:27:26.312Z,14.00
2023-04-08T04:30:15.823Z,13.90
2023-04-08T04:33:03.388Z,13.90
2023-04-08T04:35:51.115Z,14.10
2023-04-08T04:38:38.980Z,13.90
2023-04-08T04:41:27.393Z,14.00
2023-04-08T04:44:16.109Z,13.90
2023-04-08T04:47:03.968Z,14.20
2023-04-08T04:49:51.593Z,14.00
2023-04-08T04:52:39.064Z,14.10
2023-04-08T04:55:26.659Z,14.10
2023-04-08T04:58:14.099Z,14.10
2023-04-08T05:01:01.583Z,14.10
2023-04-08T05:03:49.079Z,14.00
2023-04-08T05:06:36.678Z,14.10
2023-04-08T05:09:24.194Z,14.00
2023-04-08T05:12:12.667Z,14.00
2023-04-08T05:15:00.748Z,14.10
2023-04-08T05:17:48.337Z,14.10
2023-04-08T05:20:36.339Z,13.80
2023-04-08T05:23:23.830Z,13.70
2023-04-08T05:26:11.474Z,13.70
2023-04-08T05:28:59.160Z,13.60
2023-04-08T05:31:46.734Z,13.60
2023-04-08T05:34:34.448Z,13.70
2023-04-08T05:37:21.968Z,13.80
2023-04-08T05:40:10.492Z,13.90
2023-04-08T05:42:57.960Z,13.70
2023-04-08T05:45:45.696Z,14.00
2023-04-08T05:48:33.381Z,13.90
2023-04-08T05:51:20.989Z,13.60
2023-04-08T05:54:08.501Z,13.30
2023-04-08T05:56:55.932Z,13.40
2023-04-08T05:59:43.432Z,13.30
2023-04-08T06:02:31.165Z,12.70
2023-04-08T06:05:19.305Z,13.30
2023-04-08T06:08:06.953Z,13.50
2023-04-08T06:10:54.450Z,13.50
2023-04-08T06:13:42.726Z,13.40
2023-04-08T06:16:30.285Z,13.60
2023-04-08T06:19:17.782Z,13.60
2023-04-08T06:22:05.339Z,13.70
2023-04-08T06:24:52.814Z,13.70
2023-04-08T06:27:40.559Z,13.90
2023-04-08T06:30:28.116Z,13.90
2023-04-08T06:33:15.677Z,13.90
2023-04-08T06:36:08.218Z,13.90
2023-04-08T06:38:55.937Z,13.90
2023-04-08T06:41:43.705Z,13.90
2023-04-08T06:44:31.130Z,13.90
2023-04-08T06:47:18.591Z,14.00
2023-04-08T06:50:07.062Z,14.10
2023-04-08T06:52:55.519Z,14.10
2023-04-08T06:55:43.033Z,14.00
2023-04-08T06:58:30.568Z,14.00
2023-04-08T07:01:18.274Z,14.20
2023-04-08T07:04:05.943Z,14.10
2023-04-08T07:06:53.479Z,14.00
2023-04-08T07:09:43.379Z,14.10
2023-04-08T07:12:30.900Z,13.90
2023-04-08T07:15:18.327Z,14.30
2023-04-08T07:18:06.174Z,14.20
2023-04-08T07:20:54.164Z,14.20
2023-04-08T07:23:41.671Z,14.00
2023-04-08T07:26:29.245Z,13.90
2023-04-08T07:29:16.822Z,13.70
2023-04-08T07:32:04.492Z,13.90
2023-04-08T07:34:52.121Z,14.00
2023-04-08T07:37:39.552Z,13.90
2023-04-08T07:40:27.081Z,13.70
2023-04-08T07:43:14.438Z,13.80
2023-04-08T07:46:03.530Z,13.80
2023-04-08T07:48:52.244Z,13.80
2023-04-08T07:51:39.979Z,13.80
2023-04-08T07:54:27.410Z,13.70
2023-04-08T07:57:14.982Z,13.60
2023-04-08T08:00:03.747Z,13.90
2023-04-08T08:02:51.339Z,14.00
2023-04-08T08:05:38.886Z,14.10
2023-04-08T08:08:26.451Z,13.90
2023-04-08T08:11:13.990Z,14.10
2023-04-08T08:14:01.792Z,14.30
2023-04-08T08:16:49.837Z,14.20
2023-04-08T08:19:37.291Z,14.20
2023-04-08T08:22:24.748Z,14.20
2023-04-08T08:25:12.280Z,14.20
2023-04-08T08:27:59.732Z,14.30
2023-04-08T08:30:47.187Z,14.20
2023-04-08T08:33:34.914Z,14.50
2023-04-08T08:36:22.607Z,14.40
2023-04-08T08:39:10.143Z,14.40
2023-04-08T08:41:57.751Z,13.90
2023-04-08T08:44:45.279Z,13.90
2023-04-08T08:47:32.851Z,13.90
2023-04-08T08:50:20.909Z,14.20
2023-04-08T08:53:08.389Z,14.10
2023-04-08T08:58:47.862Z,14.20
2023-04-08T09:01:38.265Z,14.10
2023-04-08T09:04:26.870Z,14.20
2023-04-08T09:07:14.839Z,14.20
2023-04-08T09:10:02.805Z,14.50
2023-04-08T09:12:56.954Z,14.40
2023-04-08T09:16:06.163Z,14.30
2023-04-08T09:18:53.792Z,14.30
2023-04-08T09:21:41.588Z,14.50
2023-04-08T09:24:31.935Z,14.40
2023-04-08T09:27:36.510Z,14.20
2023-04-08T09:30:26.711Z,14.10
2023-04-08T09:33:14.369Z,14.20
2023-04-08T09:36:02.402Z,14.40
2023-04-08T09:38:49.917Z,14.50
2023-04-08T09:41:39.959Z,14.40
2023-04-08T09:44:31.328Z,14.30
2023-04-08T09:47:29.086Z,14.40
2023-04-08T09:50:20.472Z,14.70
2023-04-08T09:53:22.148Z,14.70
2023-04-08T09:56:14.023Z,14.80
2023-04-08T09:59:12.345Z,15.00
2023-04-08T10:02:10.099Z,15.30
2023-04-08T10:05:01.636Z,15.30
2023-04-08T10:07:51.014Z,15.40
2023-04-08T10:10:42.962Z,15.60
2023-04-08T10:13:32.006Z,16.00
2023-04-08T10:16:27.774Z,16.10
2023-04-08T10:19:41.911Z,15.80
2023-04-08T10:22:29.345Z,15.90
2023-04-08T10:25:17.124Z,15.50
2023-04-08T10:28:19.449Z,15.80
2023-04-08T10:31:07.057Z,15.60
2023-04-08T10:33:54.742Z,15.50
2023-04-08T10:36:42.839Z,15.80
2023-04-08T10:39:31.661Z,16.00
2023-04-08T10:42:19.221Z,16.00
2023-04-08T10:45:07.577Z,16.20
2023-04-08T10:47:55.065Z,16.40
2023-04-08T10:50:43.332Z,16.40
2023-04-08T10:53:40.053Z,16.40
2023-04-08T10:56:29.055Z,16.10
2023-04-08T10:59:28.725Z,16.10
2023-04-08T11:02:16.809Z,16.30
2023-04-08T11:05:04.932Z,16.30
2023-04-08T11:07:53.242Z,16.20
2023-04-08T11:10:41.324Z,16.10
2023-04-08T11:13:29.396Z,15.50
2023-04-08T11:16:18.498Z,15.80
2023-04-08T11:19:07.886Z,16.50
2023-04-08T11:21:55.361Z,16.60
2023-04-08T11:24:44.029Z,16.30
2023-04-08T11:27:32.360Z,16.60
2023-04-08T11:30:20.122Z,16.30
2023-04-08T11:33:11.320Z,16.00
2023-04-08T11:36:04.062Z,16.20
2023-04-08T11:38:55.669Z,15.90
2023-04-08T11:41:43.148Z,15.80
2023-04-08T11:44:33.207Z,15.90
2023-04-08T11:47:20.964Z,15.90
2023-04-08T11:50:09.549Z,15.70
2023-04-08T11:52:57.212Z,15.50
2023-04-08T11:55:44.786Z,15.30
2023-04-08T11:58:32.243Z,15.40
2023-04-08T12:01:21.625Z,15.00
2023-04-08T12:04:11.782Z,15.20
2023-04-08T12:06:59.515Z,15.10
2023-04-08T12:09:47.069Z,15.30
2023-04-08T12:12:34.694Z,14.90
2023-04-08T12:15:22.482Z,15.00
2023-04-08T12:18:10.006Z,15.00
2023-04-08T12:20:57.513Z,14.90
2023-04-08T12:23:45.074Z,15.00
2023-04-08T12:26:32.490Z,14.80
2023-04-08T12:29:20.007Z,15.00
2023-04-08T12:32:07.742Z,14.80
2023-04-08T12:34:56.000Z,14.70
2023-04-08T12:37:43.488Z,14.80
2023-04-08T12:40:30.980Z,14.80
2023-04-08T12:43:18.490Z,14.90
2023-04-08T12:46:06.127Z,14.80
2023-04-08T12:49:03.478Z,14.80
2023-04-08T12:51:52.363Z,14.80
2023-04-08T12:54:39.816Z,14.80
2023-04-08T12:57:28.418Z,14.70
2023-04-08T13:00:16.067Z,14.90
2023-04-08T13:03:04.545Z,14.90
2023-04-08T13:05:52.149Z,14.70
2023-04-08T13:08:39.828Z,14.80
2023-04-08T13:11:28.159Z,14.80
2023-04-08T13:14:16.010Z,14.90
2023-04-08T13:17:03.497Z,14.80
2023-04-08T13:19:51.310Z,14.80
2023-04-08T13:22:38.848Z,14.80
2023-04-08T13:25:26.306Z,14.80
2023-04-08T13:28:13.892Z,14.80
2023-04-08T13:31:01.418Z,14.80
2023-04-08T13:33:48.848Z,14.80
2023-04-08T13:36:36.903Z,14.80
2023-04-08T13:39:24.360Z,14.90
2023-04-08T13:42:11.763Z,14.70
2023-04-08T13:44:59.387Z,14.20
2023-04-08T13:47:47.362Z,13.60
2023-04-08T13:50:34.910Z,13.80
2023-04-08T13:53:22.499Z,13.80
2023-04-08T13:56:10.033Z,13.90
2023-04-08T13:58:57.867Z,13.70
2023-04-08T14:01:45.836Z,13.90
2023-04-08T14:04:33.662Z,13.90
2023-04-08T14:07:21.228Z,13.80
2023-04-08T14:10:09.745Z,14.20
2023-04-08T14:12:57.299Z,13.90
2023-04-08T14:15:44.894Z,13.80
2023-04-08T14:18:32.556Z,13.60
2023-04-08T14:21:20.034Z,13.70
2023-04-08T14:24:07.631Z,13.90
2023-04-08T14:26:55.041Z,14.00
2023-04-08T14:29:42.821Z,14.00
2023-04-08T14:32:30.389Z,14.20
2023-04-08T14:35:18.019Z,14.40
2023-04-08T14:38:05.489Z,14.40
2023-04-08T14:40:54.364Z,14.50
2023-04-08T14:43:41.878Z,14.60
2023-04-08T14:46:29.671Z,14.50
2023-04-08T14:49:17.144Z,14.40
2023-04-08T14:52:04.605Z,14.70
2023-04-08T14:54:52.583Z,14.70
2023-04-08T14:57:40.065Z,14.70
2023-04-08T15:00:27.495Z,14.80
2023-04-08T15:03:15.663Z,14.20
2023-04-08T15:06:04.397Z,14.60
2023-04-08T15:08:52.102Z,14.70
2023-04-08T15:11:39.837Z,14.70
2023-04-08T15:14:27.469Z,14.30
2023-04-08T15:17:14.916Z,14.50
2023-04-08T15:20:02.422Z,14.50
2023-04-08T15:22:50.098Z,14.40
2023-04-08T15:25:37.563Z,14.30
2023-04-08T15:28:25.124Z,14.60
2023-04-08T15:31:12.619Z,14.60
2023-04-08T15:34:00.176Z,14.60
2023-04-08T15:36:47.779Z,14.50
2023-04-08T15:39:36.199Z,14.60
2023-04-08T15:42:23.712Z,14.80
2023-04-08T15:45:11.799Z,14.60
2023-04-08T15:47:59.729Z,14.50
2023-04-08T15:50:47.222Z,14.50
2023-04-08T15:53:35.412Z,14.60
2023-04-08T15:56:22.958Z,14.30
2023-04-08T15:59:10.709Z,14.50
2023-04-08T16:01:58.789Z,14.50
2023-04-08T16:04:47.029Z,14.40
2023-04-08T16:07:34.557Z,14.50
2023-04-08T16:10:22.024Z,14.50
2023-04-08T16:13:09.473Z,14.40
2023-04-08T16:15:58.633Z,14.20
2023-04-08T16:18:47.553Z,14.50
2023-04-08T16:21:36.121Z,14.40
2023-04-08T16:24:23.589Z,14.10
2023-04-08T16:27:11.178Z,14.30
2023-04-08T16:29:58.713Z,14.10
2023-04-08T16:32:46.381Z,14.10
2023-04-08T16:35:33.907Z,14.30
2023-04-08T16:38:21.451Z,14.00
2023-04-08T16:41:10.190Z,13.90
2023-04-08T16:43:58.028Z,13.90
2023-04-08T16:46:45.636Z,14.10
2023-04-08T16:49:33.092Z,13.80
2023-04-08T16:52:21.665Z,13.90
2023-04-08T16:55:09.955Z,14.00
2023-04-08T16:57:57.943Z,13.70
2023-04-08T17:00:45.683Z,13.70
2023-04-08T17:03:33.327Z,13.60
2023-04-08T17:06:20.923Z,13.80
2023-04-08T17:09:09.221Z,13.70
2023-04-08T17:11:57.291Z,13.60
2023-04-08T17:14:44.896Z,13.70
2023-04-08T17:17:33.019Z,13.70
2023-04-08T17:20:20.474Z,13.60
2023-04-08T17:23:08.375Z,13.80
2023-04-08T17:25:56.201Z,13.80
2023-04-08T17:28:43.598Z,13.70
2023-04-08T17:31:31.441Z,13.90
2023-04-08T17:34:19.062Z,13.80
2023-04-08T17:37:07.184Z,13.80
2023-04-08T17:39:54.648Z,13.90
2023-04-08T17:42:42.215Z,13.80
2023-04-08T17:45:30.111Z,13.90
2023-04-08T17:48:18.856Z,13.90
2023-04-08T17:51:07.463Z,13.70
2023-04-08T17:53:54.961Z,13.70
2023-04-08T17:56:44.706Z,13.70
2023-04-08T17:59:32.698Z,13.80
2023-04-08T18:02:20.429Z,13.70
2023-04-08T18:05:08.837Z,13.90
2023-04-08T18:07:58.289Z,13.60
2023-04-08T18:10:46.842Z,13.60
2023-04-08T18:13:34.551Z,13.70
2023-04-08T18:16:23.318Z,13.70
2023-04-08T18:19:12.759Z,13.50
2023-04-08T18:22:00.234Z,13.60
2023-04-08T18:24:47.665Z,13.60
2023-04-08T18:27:35.549Z,13.60
2023-04-08T18:30:23.071Z,13.50
2023-04-08T18:33:10.476Z,13.50
2023-04-08T18:36:05.364Z,13.40
2023-04-08T18:38:52.853Z,13.40
2023-04-08T18:41:40.411Z,13.70
2023-04-08T18:44:27.834Z,13.50
2023-04-08T18:47:15.363Z,13.50
2023-04-08T18:50:02.951Z,13.60
2023-04-08T18:52:50.557Z,13.40
2023-04-08T18:55:39.100Z,13.40
2023-04-08T18:58:27.594Z,13.50
2023-04-08T19:01:15.176Z,13.50
2023-04-08T19:04:02.923Z,13.40
2023-04-08T19:06:50.764Z,13.30
2023-04-08T19:09:38.285Z,13.30
2023-04-08T19:12:26.715Z,13.30
2023-04-08T19:15:14.756Z,13.30
2023-04-08T19:18:02.274Z,13.20
2023-04-08T19:20:49.907Z,13.10
2023-04-08T19:23:37.426Z,13.10
2023-04-08T19:26:24.865Z,13.10
2023-04-08T19:29:13.229Z,13.10
2023-04-08T19:32:03.161Z,13.10
2023-04-08T19:34:50.716Z,13.00
2023-04-08T19:37:38.150Z,13.00
2023-04-08T19:40:25.721Z,12.90
2023-04-08T19:43:13.205Z,12.90
2023-04-08T19:46:03.322Z,12.90
2023-04-08T19:48:50.832Z,12.90
2023-04-08T19:51:38.342Z,12.90
2023-04-08T19:54:25.849Z,12.90
2023-04-08T19:57:13.317Z,12.90
2023-04-08T20:00:00.814Z,12.80
2023-04-08T20:02:48.637Z,12.90
2023-04-08T20:05:36.750Z,12.90
2023-04-08T20:08:24.274Z,12.90
2023-04-08T20:11:11.825Z,12.80
2023-04-08T20:13:59.549Z,12.90
2023-04-08T20:16:47.253Z,12.90
2023-04-08T20:19:34.825Z,12.90
2023-04-08T20:22:22.593Z,12.90
2023-04-08T20:25:10.110Z,12.80
2023-04-08T20:27:57.622Z,12.90
2023-04-08T20:30:45.924Z,13.00
2023-04-08T20:33:33.840Z,12.90
2023-04-08T20:36:22.939Z,12.90
2023-04-08T20:39:11.178Z,12.90
2023-04-08T20:41:59.547Z,13.00
2023-04-08T20:44:46.996Z,12.90
2023-04-08T20:47:34.587Z,13.00
2023-04-08T20:50:22.017Z,13.00
2023-04-08T20:53:10.302Z,13.00
2023-04-08T20:55:57.803Z,13.00
2023-04-08T20:58:45.186Z,13.00
2023-04-08T21:01:32.725Z,13.00
2023-04-08T21:04:20.831Z,12.90
2023-04-08T21:07:08.362Z,12.90
2023-04-08T21:09:55.915Z,12.80
2023-04-08T21:12:44.931Z,12.80
2023-04-08T21:15:32.504Z,12.80
2023-04-08T21:18:20.045Z,12.90
2023-04-08T21:21:09.549Z,12.90
2023-04-08T21:23:57.053Z,12.90
2023-04-08T21:26:44.642Z,12.90
2023-04-08T21:29:32.019Z,12.80
2023-04-08T21:32:20.063Z,12.90
2023-04-08T21:35:07.926Z,13.00
2023-04-08T21:37:55.429Z,13.00
2023-04-08T21:40:42.982Z,13.00
2023-04-08T21:43:30.510Z,13.00
2023-04-08T21:46:18.124Z,13.00
2023-04-08T21:49:05.772Z,13.00
2023-04-08T21:51:53.424Z,13.00
2023-04-08T21:54:40.924Z,12.90
2023-04-08T21:57:28.474Z,13.00
2023-04-08T22:00:16.048Z,13.00
2023-04-08T22:03:03.919Z,13.00
2023-04-08T22:05:51.588Z,13.00
2023-04-08T22:08:38.998Z,13.00
2023-04-08T22:11:26.629Z,12.90
2023-04-08T22:14:15.582Z,12.90
2023-04-08T22:17:04.613Z,13.00
2023-04-08T22:19:52.223Z,12.90
2023-04-08T22:22:39.662Z,12.90
2023-04-08T22:25:27.147Z,13.00
2023-04-08T22:28:14.620Z,13.10
2023-04-08T22:31:02.118Z,13.10
2023-04-08T22:33:49.636Z,13.10
2023-04-08T22:36:37.075Z,13.10
2023-04-08T22:39:26.208Z,13.10
2023-04-08T22:42:13.670Z,13.10
2023-04-08T22:45:01.962Z,13.10
2023-04-08T22:47:49.524Z,13.10
2023-04-08T22:50:37.141Z,13.10
2023-04-08T22:53:24.614Z,13.10
2023-04-08T22:56:12.050Z,13.00
2023-04-08T22:58:59.566Z,13.00
2023-04-08T23:01:47.085Z,13.00
2023-04-08T23:04:34.640Z,13.00
2023-04-08T23:07:22.819Z,12.90
2023-04-08T23:10:11.099Z,12.90
2023-04-08T23:12:58.519Z,12.80
2023-04-08T23:15:47.305Z,12.80
2023-04-08T23:18:34.817Z,12.80
2023-04-08T23:21:22.480Z,12.90
2023-04-08T23:24:09.981Z,12.80
2023-04-08T23:26:57.470Z,12.80
2023-04-08T23:29:44.950Z,12.80
2023-04-08T23:32:36.182Z,12.80
2023-04-08T23:35:23.752Z,12.70
2023-04-08T23:38:11.347Z,12.70
2023-04-08T23:40:59.017Z,12.70
2023-04-08T23:43:46.896Z,12.80
2023-04-08T23:46:34.563Z,12.80
2023-04-08T23:49:22.016Z,12.80
2023-04-08T23:52:09.478Z,12.80
2023-04-08T23:54:56.985Z,12.80
2023-04-08T23:57:44.442Z,12.80
